Genesee, MI (48437)

2:31 AM EDT on April 25, 2015 (GMT -0400)
Genesee/Gregor St. | | Change Station
CLOSE
Current Station
Personal Weather Station
Location: Mount Morris, MI
Elevation: 755 ft
Nearby Weather Stations

Elev 755 ft 43.11 °N, 83.63 °W | Updated 2 seconds ago

Partly Cloudy
Partly Cloudy
35.6 °F
Feels Like 36 °F
N
1.1
Wind Variable Wind from ESE
Gusts 2.5 mph

Today
High -- | Low -- °F
--% Chance of Precip.
Yesterday
High -- | Low -- °F
Precip. -- in
6:37 AM 8:28 PM
Waxing Crescent, 43% visible
Pressure 30.04 in
Visibility 10.0 miles
Clouds Mostly Cloudy 11000 ft
Windchill 36 °F
Dew Point 15 °F
Humidity 42%
Rainfall 0.00 in
Snow Depth Not available.
UV 0 out of 12
Pollen 8.60 out of 12
Air Quality Not available.
Flu Activity Regional
METAR KFNT 250553Z AUTO 09010KT 10SM BKN110 03/M05 A3002 RMK AO2 SLP170 T00331050 10111 20033 51010 $

More Conditions Fewer Conditions

Pressure 30.04 in
Visibility 10.0 miles
Clouds Mostly Cloudy 11000 ft
Windchill 36 °F
Dew Point 15 °F
Humidity 42%
Rainfall 0.00 in
Snow Depth Not available.
UV 0 out of 12
Pollen 8.60 out of 12
Air Quality Not available.
Flu Activity Regional
METAR KFNT 250553Z AUTO 09010KT 10SM BKN110 03/M05 A3002 RMK AO2 SLP170 T00331050 10111 20033 51010 $

More Conditions Fewer Conditions

10-Day Weather Forecast

Almanac

Astronomy

Apr. 25, 2015 Rise Set
Actual Time
Civil Twilight
Nautical Twilight
Astronomical Twilight
Moon
Length of Visible Light
Length of Day
Tomorrow will be .
, % of the Moon is Illuminated

Today's Extremes

State Highs State Lows

Community

WunderPhotos

Upload Photos

1,816,624 photos uploaded!

WunderBlogs® & News

Nearby

Air Quality

  Air Quality AQ Index Pollutant
Not available.

Snow Depth

Station Depth Elevation

Earthquake Activity

City Distance Mag. Time & Date
Minimum magnitude displayed is 2.5.

Coastal Water Temperatures

Place Temperature

Stations

Nearby Weather Stations

Station Location Temp. Windchill Dew Point Humidity Wind Precip. Elev Updated Type